createdAt,value
2023-05-10T00:02:09.210Z,13.30
2023-05-10T00:04:36.392Z,13.30
2023-05-10T00:07:03.377Z,13.30
2023-05-10T00:09:30.226Z,13.30
2023-05-10T00:11:59.524Z,13.30
2023-05-10T00:14:26.440Z,13.30
2023-05-10T00:16:53.520Z,13.30
2023-05-10T00:19:20.800Z,13.30
2023-05-10T00:21:47.786Z,13.10
2023-05-10T00:24:14.624Z,13.10
2023-05-10T00:26:43.347Z,13.20
2023-05-10T00:29:10.341Z,13.20
2023-05-10T00:31:37.213Z,13.10
2023-05-10T00:34:04.077Z,13.20
2023-05-10T00:36:32.389Z,13.20
2023-05-10T00:38:59.424Z,13.20
2023-05-10T00:41:26.317Z,13.20
2023-05-10T00:43:53.200Z,13.20
2023-05-10T00:46:20.130Z,13.20
2023-05-10T00:48:47.129Z,13.20
2023-05-10T00:51:15.033Z,13.20
2023-05-10T00:53:42.192Z,13.10
2023-05-10T00:56:09.276Z,13.10
2023-05-10T00:58:36.134Z,13.20
2023-05-10T01:01:03.418Z,13.10
2023-05-10T01:03:30.679Z,13.20
2023-05-10T01:05:57.719Z,13.10
2023-05-10T01:08:24.870Z,13.10
2023-05-10T01:10:51.871Z,13.10
2023-05-10T01:13:34.623Z,13.10
2023-05-10T01:16:05.167Z,13.10
2023-05-10T01:18:34.583Z,13.00
2023-05-10T01:21:12.997Z,13.00
2023-05-10T01:23:52.034Z,13.00
2023-05-10T01:26:48.893Z,13.00
2023-05-10T01:29:34.366Z,12.90
2023-05-10T01:32:23.675Z,12.90
2023-05-10T01:35:44.385Z,12.90
2023-05-10T01:38:16.800Z,12.90
2023-05-10T01:40:55.834Z,12.90
2023-05-10T01:43:32.346Z,12.90
2023-05-10T01:46:12.023Z,12.90
2023-05-10T01:48:52.617Z,12.90
2023-05-10T01:51:24.986Z,13.00
2023-05-10T01:53:55.289Z,13.10
2023-05-10T01:56:26.867Z,13.10
2023-05-10T01:58:55.268Z,13.10
2023-05-10T02:01:23.172Z,13.10
2023-05-10T02:03:52.974Z,13.10
2023-05-10T02:06:23.323Z,13.00
2023-05-10T02:08:51.635Z,13.00
2023-05-10T02:11:19.740Z,13.00
2023-05-10T02:13:49.046Z,12.90
2023-05-10T02:16:18.131Z,12.90
2023-05-10T02:18:45.913Z,12.90
2023-05-10T02:21:14.368Z,13.00
2023-05-10T02:23:41.647Z,13.00
2023-05-10T02:26:09.930Z,13.00
2023-05-10T02:28:38.765Z,12.90
2023-05-10T02:31:07.210Z,12.90
2023-05-10T02:33:35.969Z,12.90
2023-05-10T02:36:04.616Z,12.90
2023-05-10T02:38:32.799Z,12.90
2023-05-10T02:41:01.711Z,12.90
2023-05-10T02:43:31.169Z,12.90
2023-05-10T02:45:58.668Z,13.00
2023-05-10T02:48:25.613Z,13.00
2023-05-10T02:50:56.029Z,13.10
2023-05-10T02:53:29.700Z,13.10
2023-05-10T02:56:00.799Z,13.10
2023-05-10T02:58:28.124Z,13.20
2023-05-10T03:00:55.268Z,13.20
2023-05-10T03:03:22.269Z,13.20
2023-05-10T03:05:49.102Z,13.20
2023-05-10T03:08:16.165Z,13.20
2023-05-10T03:10:52.324Z,13.20
2023-05-10T03:13:33.920Z,13.20
2023-05-10T03:16:09.092Z,13.30
2023-05-10T03:18:47.594Z,13.30
2023-05-10T03:21:17.406Z,13.40
2023-05-10T03:24:01.516Z,13.30
2023-05-10T03:26:30.172Z,13.30
2023-05-10T03:29:00.022Z,13.40
2023-05-10T03:31:26.984Z,13.30
2023-05-10T03:33:54.332Z,13.30
2023-05-10T03:36:21.206Z,13.30
2023-05-10T03:38:48.180Z,13.30
2023-05-10T03:41:15.287Z,13.40
2023-05-10T03:43:42.966Z,13.30
2023-05-10T03:46:09.865Z,13.30
2023-05-10T03:48:36.775Z,13.30
2023-05-10T03:51:03.738Z,13.30
2023-05-10T03:53:30.621Z,13.20
2023-05-10T03:55:57.583Z,13.30
2023-05-10T03:58:24.565Z,13.30
2023-05-10T04:00:52.750Z,13.20
2023-05-10T04:03:19.802Z,13.20
2023-05-10T04:05:46.682Z,13.20
2023-05-10T04:08:13.627Z,13.20
2023-05-10T04:10:40.911Z,13.20
2023-05-10T04:13:07.839Z,13.30
2023-05-10T04:15:34.900Z,13.30
2023-05-10T04:18:02.038Z,13.30
2023-05-10T04:20:29.235Z,13.30
2023-05-10T04:22:56.172Z,13.30
2023-05-10T04:25:22.998Z,13.30
2023-05-10T04:27:49.805Z,13.30
2023-05-10T04:30:16.859Z,13.30
2023-05-10T04:32:43.920Z,13.30
2023-05-10T04:35:11.808Z,13.40
2023-05-10T04:37:38.748Z,13.30
2023-05-10T04:40:06.450Z,13.30
2023-05-10T04:42:33.596Z,13.40
2023-05-10T04:45:00.421Z,13.30
2023-05-10T04:47:27.255Z,13.40
2023-05-10T04:49:54.094Z,13.40
2023-05-10T04:52:21.032Z,13.30
2023-05-10T04:54:48.355Z,13.30
2023-05-10T04:57:15.213Z,13.30
2023-05-10T04:59:42.020Z,13.20
2023-05-10T05:02:09.167Z,13.30
2023-05-10T05:04:36.112Z,13.30
2023-05-10T05:07:02.943Z,13.30
2023-05-10T05:09:29.793Z,13.30
2023-05-10T05:11:57.038Z,13.40
2023-05-10T05:14:26.117Z,13.40
2023-05-10T05:16:54.154Z,13.30
2023-05-10T05:19:21.093Z,13.30
2023-05-10T05:21:47.918Z,13.30
2023-05-10T05:24:14.768Z,13.30
2023-05-10T05:26:41.639Z,13.30
2023-05-10T05:29:08.519Z,13.30
2023-05-10T05:31:35.355Z,13.40
2023-05-10T05:34:02.229Z,13.40
2023-05-10T05:36:29.078Z,13.30
2023-05-10T05:38:56.096Z,13.30
2023-05-10T05:41:22.913Z,13.20
2023-05-10T05:43:49.765Z,13.20
2023-05-10T05:46:16.662Z,13.40
2023-05-10T05:48:43.653Z,13.40
2023-05-10T05:51:10.582Z,13.60
2023-05-10T05:53:37.466Z,13.60
2023-05-10T05:56:04.781Z,13.70
2023-05-10T05:58:31.701Z,13.60
2023-05-10T06:00:58.576Z,13.60
2023-05-10T06:03:25.518Z,13.50
2023-05-10T06:05:52.419Z,13.50
2023-05-10T06:08:19.232Z,13.50
2023-05-10T06:10:46.512Z,13.50
2023-05-10T06:13:13.756Z,13.50
2023-05-10T06:15:41.159Z,13.50
2023-05-10T06:18:08.420Z,13.50
2023-05-10T06:20:35.334Z,13.60
2023-05-10T06:23:02.315Z,13.60
2023-05-10T06:25:29.116Z,13.60
2023-05-10T06:27:58.802Z,13.60
2023-05-10T06:30:30.112Z,13.60
2023-05-10T06:32:57.757Z,13.70
2023-05-10T06:35:24.837Z,13.70
2023-05-10T06:37:52.566Z,13.70
2023-05-10T06:40:19.764Z,13.70
2023-05-10T06:42:47.487Z,13.70
2023-05-10T06:45:15.880Z,13.70
2023-05-10T06:47:43.215Z,13.80
2023-05-10T06:50:10.862Z,13.80
2023-05-10T06:52:38.021Z,13.80
2023-05-10T06:55:05.853Z,13.80
2023-05-10T06:57:33.191Z,13.70
2023-05-10T07:00:00.576Z,13.60
2023-05-10T07:02:27.771Z,13.60
2023-05-10T07:04:55.261Z,13.50
2023-05-10T07:07:22.298Z,13.50
2023-05-10T07:09:50.077Z,13.60
2023-05-10T07:12:17.039Z,13.60
2023-05-10T07:14:43.927Z,13.70
2023-05-10T07:17:11.151Z,13.80
2023-05-10T07:19:38.104Z,13.90
2023-05-10T07:22:04.990Z,14.00
2023-05-10T07:24:32.637Z,14.10
2023-05-10T07:26:59.593Z,14.10
2023-05-10T07:29:26.834Z,14.20
2023-05-10T07:31:55.406Z,14.30
2023-05-10T07:34:24.007Z,14.40
2023-05-10T07:36:50.867Z,14.50
2023-05-10T07:39:26.506Z,14.70
2023-05-10T07:41:53.982Z,14.80
2023-05-10T07:44:21.489Z,14.90
2023-05-10T07:46:48.834Z,14.80
2023-05-10T07:49:15.910Z,14.70
2023-05-10T07:51:43.643Z,14.60
2023-05-10T07:54:10.678Z,14.70
2023-05-10T07:56:37.602Z,14.70
2023-05-10T07:59:06.291Z,14.80
2023-05-10T08:01:34.566Z,14.80
2023-05-10T08:04:03.072Z,14.90
2023-05-10T08:06:31.265Z,14.90
2023-05-10T08:08:58.842Z,15.00
2023-05-10T08:11:26.170Z,14.90
2023-05-10T08:13:54.043Z,15.00
2023-05-10T08:16:21.413Z,15.10
2023-05-10T08:18:50.268Z,15.10
2023-05-10T08:21:17.366Z,15.00
2023-05-10T08:23:45.297Z,14.80
2023-05-10T08:26:12.393Z,14.80
2023-05-10T08:28:39.456Z,14.70
2023-05-10T08:31:06.587Z,14.70
2023-05-10T08:33:33.820Z,14.70
2023-05-10T08:36:00.842Z,14.70
2023-05-10T08:38:27.707Z,14.70
2023-05-10T08:40:59.884Z,14.70
2023-05-10T08:43:31.071Z,14.60
2023-05-10T08:46:02.395Z,14.50
2023-05-10T08:48:30.977Z,14.50
2023-05-10T08:50:59.991Z,14.40
2023-05-10T08:53:29.813Z,14.50
2023-05-10T08:55:57.147Z,14.50
2023-05-10T08:58:24.132Z,14.60
2023-05-10T09:00:54.152Z,14.70
2023-05-10T09:03:21.121Z,14.90
2023-05-10T09:05:49.518Z,15.00
2023-05-10T09:08:19.805Z,15.00
2023-05-10T09:10:48.686Z,15.10
2023-05-10T09:13:16.774Z,15.10
2023-05-10T09:15:45.459Z,15.10
2023-05-10T09:18:12.896Z,15.00
2023-05-10T09:20:39.812Z,14.90
2023-05-10T09:23:07.055Z,14.90
2023-05-10T09:25:36.888Z,14.90
2023-05-10T09:28:07.039Z,14.90
2023-05-10T09:30:33.930Z,14.90
2023-05-10T09:33:01.909Z,14.90
2023-05-10T09:35:31.337Z,15.00
2023-05-10T09:38:01.494Z,15.10
2023-05-10T09:40:30.053Z,15.20
2023-05-10T09:43:08.960Z,15.10
2023-05-10T09:45:38.621Z,15.10
2023-05-10T09:48:07.088Z,15.30
2023-05-10T09:50:35.307Z,15.30
2023-05-10T09:53:04.696Z,15.30
2023-05-10T09:58:22.289Z,15.20
2023-05-10T10:00:52.441Z,15.20
2023-05-10T10:03:21.538Z,15.10
2023-05-10T10:05:49.705Z,15.10
2023-05-10T10:08:17.870Z,15.40
2023-05-10T10:10:47.661Z,15.60
2023-05-10T10:13:15.215Z,15.80
2023-05-10T10:15:44.718Z,15.70
2023-05-10T10:18:16.381Z,15.60
2023-05-10T10:20:43.707Z,15.50
2023-05-10T10:23:10.865Z,15.60
2023-05-10T10:25:39.745Z,15.70
2023-05-10T10:28:27.518Z,15.70
2023-05-10T10:30:57.386Z,15.90
2023-05-10T10:33:53.649Z,16.00
2023-05-10T10:36:21.422Z,16.00
2023-05-10T10:38:48.214Z,16.10
2023-05-10T10:41:36.003Z,16.20
2023-05-10T10:44:37.709Z,16.20
2023-05-10T10:47:15.407Z,16.20
2023-05-10T10:49:42.604Z,16.30
2023-05-10T10:52:24.618Z,16.50
2023-05-10T10:55:09.467Z,16.50
2023-05-10T10:57:42.545Z,16.50
2023-05-10T11:00:32.439Z,16.50
2023-05-10T11:03:05.504Z,16.70
2023-05-10T11:05:43.709Z,16.80
2023-05-10T11:08:13.139Z,17.10
2023-05-10T11:10:41.206Z,17.40
2023-05-10T11:13:10.341Z,17.60
2023-05-10T11:15:39.906Z,17.70
2023-05-10T11:18:29.871Z,18.00
2023-05-10T11:21:01.046Z,18.10
2023-05-10T11:23:41.085Z,18.10
2023-05-10T11:26:12.126Z,18.10
2023-05-10T11:28:46.964Z,18.00
2023-05-10T11:31:18.306Z,17.80
2023-05-10T11:33:51.153Z,17.50
2023-05-10T11:36:34.059Z,17.30
2023-05-10T11:39:01.019Z,17.10
2023-05-10T11:41:30.602Z,17.00
2023-05-10T11:43:58.778Z,17.00
2023-05-10T11:46:28.056Z,16.90
2023-05-10T11:49:01.749Z,16.90
2023-05-10T11:51:28.999Z,16.90
2023-05-10T11:53:57.796Z,16.90
2023-05-10T11:56:24.881Z,16.90
2023-05-10T11:58:58.790Z,17.00
2023-05-10T12:01:27.759Z,17.10
2023-05-10T12:03:56.554Z,17.10
2023-05-10T12:06:23.686Z,17.30
2023-05-10T12:08:54.797Z,17.60
2023-05-10T12:11:25.377Z,17.90
2023-05-10T12:13:52.801Z,18.10
2023-05-10T12:16:29.384Z,18.10
2023-05-10T12:19:01.392Z,18.10
2023-05-10T12:21:31.802Z,18.10
2023-05-10T12:24:04.466Z,18.20
2023-05-10T12:26:32.067Z,18.40
2023-05-10T12:29:16.891Z,18.40
2023-05-10T12:31:55.003Z,18.50
2023-05-10T12:34:32.776Z,18.50
2023-05-10T12:37:00.000Z,18.70
2023-05-10T12:39:27.037Z,19.00
2023-05-10T12:41:54.104Z,19.40
2023-05-10T12:44:21.164Z,19.60
2023-05-10T12:46:48.063Z,19.80
2023-05-10T12:49:15.002Z,19.80
2023-05-10T12:51:41.901Z,19.90
2023-05-10T12:54:08.803Z,20.10
2023-05-10T12:56:35.712Z,20.30
2023-05-10T12:59:02.616Z,20.30
2023-05-10T13:01:29.565Z,20.00
2023-05-10T13:03:56.409Z,19.70
2023-05-10T13:06:23.385Z,19.50
2023-05-10T13:08:50.305Z,19.60
2023-05-10T13:11:18.097Z,19.80
2023-05-10T13:13:44.994Z,20.00
2023-05-10T13:16:11.841Z,20.10
2023-05-10T13:18:38.749Z,20.00
2023-05-10T13:21:06.548Z,19.80
2023-05-10T13:23:33.502Z,19.50
2023-05-10T13:26:00.346Z,19.40
2023-05-10T13:28:27.534Z,19.00
2023-05-10T13:30:54.449Z,18.90
2023-05-10T13:33:21.284Z,18.90
2023-05-10T13:35:48.081Z,18.80
2023-05-10T13:38:15.277Z,18.80
2023-05-10T13:40:42.108Z,18.80
2023-05-10T13:43:08.973Z,18.90
2023-05-10T13:45:35.831Z,19.10
2023-05-10T13:48:02.786Z,19.20
2023-05-10T13:50:29.693Z,18.90
2023-05-10T13:52:56.623Z,18.80
2023-05-10T13:55:23.500Z,18.90
2023-05-10T13:57:50.322Z,18.80
2023-05-10T14:00:17.594Z,19.00
2023-05-10T14:02:44.806Z,19.20
2023-05-10T14:05:12.398Z,19.30
2023-05-10T14:07:39.829Z,19.50
2023-05-10T14:10:07.350Z,19.50
2023-05-10T14:12:34.254Z,19.70
2023-05-10T14:15:01.307Z,19.80
2023-05-10T14:20:07.957Z,19.80
2023-05-10T14:22:34.900Z,19.50
2023-05-10T14:25:01.909Z,19.50
2023-05-10T14:27:28.987Z,19.50
2023-05-10T14:29:55.822Z,19.70
2023-05-10T14:32:22.783Z,19.90
2023-05-10T14:34:49.696Z,20.10
2023-05-10T14:37:17.411Z,19.90
2023-05-10T14:39:44.425Z,19.70
2023-05-10T14:42:11.316Z,19.90
2023-05-10T14:44:38.482Z,20.00
2023-05-10T14:47:05.395Z,19.90
2023-05-10T14:49:32.726Z,20.10
2023-05-10T14:51:59.572Z,20.40
2023-05-10T14:54:26.428Z,20.60
2023-05-10T14:56:53.252Z,20.70
2023-05-10T14:59:20.097Z,20.90
2023-05-10T15:01:47.591Z,20.80
2023-05-10T15:04:17.222Z,20.70
2023-05-10T15:06:44.859Z,20.50
2023-05-10T15:09:11.907Z,20.00
2023-05-10T15:11:38.745Z,19.40
2023-05-10T15:14:05.713Z,19.00
2023-05-10T15:16:35.700Z,18.80
2023-05-10T15:19:03.165Z,18.70
2023-05-10T15:21:31.892Z,18.40
2023-05-10T15:23:58.732Z,18.20
2023-05-10T15:26:27.373Z,18.20
2023-05-10T15:28:54.247Z,17.70
2023-05-10T15:31:21.096Z,17.30
2023-05-10T15:33:47.978Z,17.20
2023-05-10T15:36:14.808Z,16.80
2023-05-10T15:38:41.640Z,16.60
2023-05-10T15:41:08.465Z,16.50
2023-05-10T15:43:35.292Z,16.30
2023-05-10T15:46:02.213Z,16.30
2023-05-10T15:48:29.288Z,16.30
2023-05-10T15:50:56.968Z,16.40
2023-05-10T15:53:23.837Z,16.30
2023-05-10T15:55:50.746Z,16.10
2023-05-10T15:58:17.581Z,15.80
2023-05-10T16:00:44.464Z,15.80
2023-05-10T16:03:11.376Z,15.70
2023-05-10T16:05:38.233Z,15.50
2023-05-10T16:08:05.220Z,15.30
2023-05-10T16:10:33.452Z,15.30
2023-05-10T16:13:00.736Z,15.10
2023-05-10T16:15:27.694Z,15.10
2023-05-10T16:17:54.712Z,15.00
2023-05-10T16:20:21.772Z,14.90
2023-05-10T16:22:48.656Z,14.90
2023-05-10T16:25:15.739Z,14.90
2023-05-10T16:27:43.422Z,14.80
2023-05-10T16:30:10.588Z,14.70
2023-05-10T16:32:37.438Z,14.60
2023-05-10T16:35:04.920Z,14.40
2023-05-10T16:37:31.757Z,14.40
2023-05-10T16:39:58.546Z,14.40
2023-05-10T16:42:26.210Z,14.40
2023-05-10T16:44:53.837Z,14.40
2023-05-10T16:47:20.770Z,14.30
2023-05-10T16:49:47.692Z,14.30
2023-05-10T16:52:14.508Z,14.30
2023-05-10T16:54:41.378Z,14.20
2023-05-10T16:57:08.782Z,14.10
2023-05-10T16:59:35.693Z,13.90
2023-05-10T17:02:02.613Z,13.90
2023-05-10T17:04:29.493Z,13.90
2023-05-10T17:06:56.453Z,13.90
2023-05-10T17:09:23.446Z,13.90
2023-05-10T17:11:50.287Z,13.80
2023-05-10T17:14:17.110Z,13.80
2023-05-10T17:16:43.968Z,13.80
2023-05-10T17:19:11.396Z,13.80
2023-05-10T17:21:38.251Z,13.90
2023-05-10T17:24:05.345Z,13.90
2023-05-10T17:26:32.257Z,13.70
2023-05-10T17:28:59.094Z,13.70
2023-05-10T17:31:27.401Z,13.60
2023-05-10T17:33:54.627Z,13.60
2023-05-10T17:36:21.631Z,13.60
2023-05-10T17:38:48.614Z,13.60
2023-05-10T17:41:15.494Z,13.60
2023-05-10T17:43:42.311Z,13.60
2023-05-10T17:46:09.186Z,13.50
2023-05-10T17:48:37.193Z,13.50
2023-05-10T17:51:04.518Z,13.40
2023-05-10T17:53:31.642Z,13.40
2023-05-10T17:55:59.284Z,13.40
2023-05-10T17:58:26.159Z,13.40
2023-05-10T18:00:53.456Z,13.60
2023-05-10T18:03:20.720Z,13.60
2023-05-10T18:05:48.117Z,13.60
2023-05-10T18:08:15.379Z,13.70
2023-05-10T18:10:42.285Z,13.70
2023-05-10T18:13:09.517Z,13.70
2023-05-10T18:15:36.543Z,13.80
2023-05-10T18:18:04.769Z,13.70
2023-05-10T18:20:31.991Z,13.70
2023-05-10T18:22:59.146Z,13.70
2023-05-10T18:25:26.495Z,13.70
2023-05-10T18:27:53.376Z,13.70
2023-05-10T18:30:20.264Z,13.70
2023-05-10T18:32:47.290Z,13.70
2023-05-10T18:35:14.784Z,13.70
2023-05-10T18:37:42.158Z,13.60
2023-05-10T18:40:11.219Z,13.60
2023-05-10T18:42:38.252Z,13.60
2023-05-10T18:45:06.157Z,13.60
2023-05-10T18:47:32.998Z,13.70
2023-05-10T18:50:00.188Z,13.70
2023-05-10T18:52:27.089Z,13.70
2023-05-10T18:54:53.901Z,13.60
2023-05-10T18:57:22.024Z,13.60
2023-05-10T18:59:49.488Z,13.60
2023-05-10T19:02:16.488Z,13.60
2023-05-10T19:04:43.558Z,13.50
2023-05-10T19:07:10.384Z,13.50
2023-05-10T19:09:37.312Z,13.50
2023-05-10T19:12:04.262Z,13.40
2023-05-10T19:14:31.204Z,13.40
2023-05-10T19:17:00.073Z,13.30
2023-05-10T19:19:27.571Z,13.30
2023-05-10T19:21:55.976Z,13.30
2023-05-10T19:24:25.842Z,13.30
2023-05-10T19:26:53.112Z,13.30
2023-05-10T19:29:19.926Z,13.20
2023-05-10T19:31:47.129Z,13.20
2023-05-10T19:34:13.980Z,13.20
2023-05-10T19:36:40.993Z,13.20
2023-05-10T19:39:07.874Z,13.20
2023-05-10T19:41:34.784Z,13.10
2023-05-10T19:44:01.596Z,13.10
2023-05-10T19:46:28.573Z,13.20
2023-05-10T19:48:55.438Z,13.20
2023-05-10T19:51:22.420Z,13.20
2023-05-10T19:53:49.369Z,13.20
2023-05-10T19:56:18.413Z,13.20
2023-05-10T19:58:45.695Z,13.20
2023-05-10T20:01:12.824Z,13.20
2023-05-10T20:03:39.802Z,13.20
2023-05-10T20:06:09.587Z,13.10
2023-05-10T20:08:36.426Z,13.10
2023-05-10T20:11:04.036Z,13.10
2023-05-10T20:13:30.945Z,13.10
2023-05-10T20:15:59.608Z,13.10
2023-05-10T20:18:27.183Z,13.00
2023-05-10T20:20:59.283Z,13.00
2023-05-10T20:23:26.538Z,12.90
2023-05-10T20:25:54.843Z,12.90
2023-05-10T20:28:23.450Z,12.70
2023-05-10T20:30:54.802Z,12.70
2023-05-10T20:33:22.715Z,12.70
2023-05-10T20:35:50.545Z,12.60
2023-05-10T20:38:18.411Z,12.50
2023-05-10T20:40:45.795Z,12.50
2023-05-10T20:43:12.858Z,12.40
2023-05-10T20:45:39.778Z,12.30
2023-05-10T20:48:06.841Z,12.30
2023-05-10T20:50:33.749Z,12.30
2023-05-10T20:53:01.647Z,12.30
2023-05-10T20:55:28.968Z,12.20
2023-05-10T20:57:55.889Z,12.20
2023-05-10T21:00:22.797Z,12.10
2023-05-10T21:02:49.836Z,12.00
2023-05-10T21:05:18.480Z,12.20
2023-05-10T21:07:45.384Z,12.20
2023-05-10T21:10:12.500Z,12.20
2023-05-10T21:12:39.422Z,12.30
2023-05-10T21:15:06.830Z,12.40
2023-05-10T21:20:06.527Z,12.50
2023-05-10T21:22:33.384Z,12.60
2023-05-10T21:25:00.243Z,12.60
2023-05-10T21:27:27.474Z,12.60
2023-05-10T21:29:54.346Z,12.60
2023-05-10T21:32:21.217Z,12.70
2023-05-10T21:34:48.077Z,12.80
2023-05-10T21:37:17.073Z,12.70
2023-05-10T21:39:44.362Z,12.80
2023-05-10T21:42:11.488Z,12.80
2023-05-10T21:44:38.851Z,12.80
2023-05-10T21:47:05.861Z,12.90
2023-05-10T21:49:32.670Z,12.80
2023-05-10T21:51:59.502Z,12.80
2023-05-10T21:54:26.502Z,12.80
2023-05-10T21:56:53.436Z,12.80
2023-05-10T21:59:21.784Z,12.80
2023-05-10T22:01:48.850Z,12.70
2023-05-10T22:04:15.842Z,12.70
2023-05-10T22:06:42.714Z,12.70
2023-05-10T22:09:10.215Z,12.70
2023-05-10T22:11:37.101Z,12.80
2023-05-10T22:14:04.109Z,12.70
2023-05-10T22:16:31.171Z,12.70
2023-05-10T22:18:58.110Z,12.70
2023-05-10T22:21:25.091Z,12.60
2023-05-10T22:23:51.978Z,12.60
2023-05-10T22:26:18.853Z,12.60
2023-05-10T22:28:45.649Z,12.60
2023-05-10T22:31:12.821Z,12.60
2023-05-10T22:33:39.783Z,12.70
2023-05-10T22:36:06.900Z,12.70
2023-05-10T22:38:33.792Z,12.60
2023-05-10T22:41:00.803Z,12.60
2023-05-10T22:46:08.196Z,12.60
2023-05-10T22:48:36.028Z,12.50
2023-05-10T22:51:02.897Z,12.50
2023-05-10T22:53:29.725Z,12.50
2023-05-10T22:55:56.683Z,12.40
2023-05-10T22:58:23.793Z,12.40
2023-05-10T23:00:50.849Z,12.40
2023-05-10T23:03:18.102Z,12.40
2023-05-10T23:05:44.984Z,12.40
2023-05-10T23:08:11.865Z,12.40
2023-05-10T23:10:39.250Z,12.40
2023-05-10T23:13:06.460Z,12.40
2023-05-10T23:15:33.511Z,12.40
2023-05-10T23:18:04.697Z,12.40
2023-05-10T23:20:31.817Z,12.40
2023-05-10T23:22:58.921Z,12.40
2023-05-10T23:25:25.751Z,12.50
2023-05-10T23:27:52.602Z,12.50
2023-05-10T23:30:19.699Z,12.40
2023-05-10T23:32:46.645Z,12.40
2023-05-10T23:35:13.501Z,12.40
2023-05-10T23:40:21.781Z,12.50
2023-05-10T23:42:48.660Z,12.40
2023-05-10T23:45:15.824Z,12.30
2023-05-10T23:47:42.929Z,12.40
2023-05-10T23:50:10.454Z,12.40
2023-05-10T23:52:37.424Z,12.40
2023-05-10T23:55:04.427Z,12.40
2023-05-10T23:57:31.234Z,12.40
2023-05-10T23:59:58.208Z,12.40
